Latest Weather Observations for Mount Nowa Nowa

IDV60801

Issued at 4:32 pm EDT Saturday 31 January 2015 (issued every 30 minutes, with the page automatically refreshed every 10 minutes)

About weather observations | Map of weather stations | Latest weather observations for VIC | Other Formats
Station Details ID: 084144 Name: MOUNT NOWA NOWA Lat: -37.69 Lon: 148.09 Height: 350.0 m
Data from the previous 72 hours. | See also: Recent months at Mount Nowa Nowa
Date/Time
EDT
Temp
°C
App
Temp
°C
Dew
Point
Rel
Hum
%
Delta-T
°C
Wind Press
QNH
hPa
Press
MSL
hPa
Rain
since 9 am
mm
Dir
 
Spd
km/h
Gust
km/h
Spd
kts
Gust
kts
31/04:30pm 15.4 15.0 13.1 86 1.3 W 7 15 4 8 - - 0.0
31/04:00pm 15.3 15.1 13.0 86 1.3 WSW 6 17 3 9 - - 0.0
31/03:30pm 15.0 14.5 12.7 86 1.3 WSW 7 13 4 7 - - 0.0
31/03:00pm 15.2 15.0 12.9 86 1.3 W 6 15 3 8 - - 0.0
31/02:30pm 14.6 13.6 12.3 86 1.3 W 9 22 5 12 - - 0.0
31/02:00pm 14.6 14.4 13.0 90 0.9 W 6 13 3 7 - - 0.0
31/01:30pm 13.6 12.6 12.2 91 0.8 WSW 9 19 5 10 - - 0.0
31/01:00pm 13.8 13.0 11.7 87 1.1 W 7 15 4 8 - - 0.0
31/12:30pm 13.3 12.4 11.5 89 1.0 W 7 15 4 8 - - 0.0
31/12:00pm 12.6 10.8 11.0 90 0.9 W 11 20 6 11 - - 0.0
31/11:30am 12.8 11.3 10.7 87 1.1 W 9 26 5 14 - - 0.0
31/11:00am 12.7 10.8 10.6 87 1.1 W 11 19 6 10 - - 0.0
31/10:30am 12.6 10.3 10.3 86 1.2 W 13 28 7 15 - - 0.0
31/10:00am 12.3 9.9 9.9 85 1.2 W 13 22 7 12 - - 0.0
31/09:30am 11.9 9.8 9.6 86 1.2 W 11 20 6 11 - - 0.0
31/09:00am 11.6 9.8 9.3 86 1.2 W 9 19 5 10 - - 15.6
31/08:30am 11.6 9.0 9.2 85 1.2 W 13 22 7 12 - - 15.6
31/08:00am 11.5 9.4 9.6 88 1.0 W 11 19 6 10 - - 15.6
31/07:30am 11.3 8.8 9.7 90 0.8 W 13 22 7 12 - - 15.6
31/07:00am 11.1 9.0 9.9 92 0.6 W 11 19 6 10 - - 15.6
31/06:30am 11.0 8.6 9.9 93 0.6 W 13 28 7 15 - - 15.6
31/06:00am 11.0 8.9 9.9 93 0.6 W 11 22 6 12 - - 15.6
31/05:30am 10.9 8.8 9.8 93 0.6 W 11 17 6 9 - - 15.6
31/05:00am 10.8 8.3 9.6 92 0.6 W 13 24 7 13 - - 15.6
31/04:30am 10.8 8.3 9.6 92 0.6 W 13 22 7 12 - - 15.6
31/04:00am 10.9 8.4 9.8 93 0.6 W 13 24 7 13 - - 15.6
31/03:30am 10.8 8.4 9.9 94 0.5 W 13 17 7 9 - - 15.6
31/03:00am 10.8 8.4 10.0 95 0.4 W 13 22 7 12 - - 15.6
31/02:30am 10.8 8.8 10.2 96 0.3 W 11 19 6 10 - - 15.6
31/02:00am 10.8 8.9 10.5 98 0.2 W 11 17 6 9 - - 15.6
31/01:30am 11.0 9.5 10.7 98 0.2 W 9 13 5 7 - - 15.6
31/01:00am 11.1 9.7 10.8 98 0.2 W 9 19 5 10 - - 15.6
31/12:30am 11.2 9.8 10.9 98 0.2 W 9 15 5 8 - - 15.4
31/12:00am 11.3 9.9 10.8 97 0.3 W 9 15 5 8 - - 15.4
 
Date/Time
EDT
Temp
°C
App
Temp
°C
Dew
Point
Rel
Hum
%
Delta-T
°C
Wind Press
QNH
hPa
Press
MSL
hPa
Rain
since 9 am
mm
Dir
 
Spd
km/h
Gust
km/h
Spd
kts
Gust
kts
30/11:30pm 11.3 10.2 10.7 96 0.3 W 7 17 4 9 - - 15.2
30/11:00pm 11.5 10.4 10.7 95 0.4 W 7 13 4 7 - - 15.0
30/10:30pm 11.5 10.5 10.9 96 0.3 W 7 17 4 9 - - 15.0
30/10:00pm 11.5 10.5 11.0 97 0.3 W 7 13 4 7 - - 15.0
30/09:30pm 11.5 10.7 11.2 98 0.2 W 6 9 3 5 - - 15.0
30/09:00pm 11.4 10.5 11.2 99 0.1 W 7 11 4 6 - - 15.0
30/08:30pm 11.5 10.6 11.3 99 0.1 W 7 15 4 8 - - 15.0
30/08:00pm 11.8 11.0 11.6 99 0.1 WSW 7 13 4 7 - - 15.0
30/07:30pm 11.8 11.0 11.6 99 0.1 WSW 7 13 4 7 - - 15.0
30/07:00pm 12.0 11.4 11.8 99 0.1 WSW 6 13 3 7 - - 15.0
30/06:30pm 12.1 11.4 11.9 99 0.1 WSW 7 15 4 8 - - 15.0
30/06:00pm 11.9 10.7 11.7 99 0.1 WSW 9 17 5 9 - - 14.8
30/05:30pm 11.8 10.6 11.6 99 0.1 SW 9 22 5 12 - - 14.8
30/05:00pm 12.0 10.9 11.8 99 0.1 WSW 9 20 5 11 - - 14.0
30/04:30pm 12.1 11.0 11.9 99 0.1 SW 9 24 5 13 - - 13.6
30/04:00pm 12.2 11.1 12.0 99 0.1 WSW 9 17 5 9 - - 12.8
30/03:30pm 11.9 10.0 11.7 99 0.1 SW 13 33 7 18 - - 11.8
30/03:00pm 12.2 11.1 12.0 99 0.1 SW 9 20 5 11 - - 10.6
30/02:30pm 12.4 11.4 12.2 99 0.1 SW 9 22 5 12 - - 9.0
30/02:00pm 12.6 11.3 12.4 99 0.1 SW 11 20 6 11 - - 8.8
30/01:30pm 12.5 11.1 12.3 99 0.1 SW 11 22 6 12 - - 8.4
30/01:00pm 12.5 11.1 12.3 99 0.1 SW 11 24 6 13 - - 7.6
30/12:30pm 12.7 12.2 12.5 99 0.1 SW 7 19 4 10 - - 7.0
30/12:00pm 12.3 11.6 12.1 99 0.1 WSW 7 17 4 9 - - 6.8
30/11:30am 12.3 11.6 12.1 99 0.1 SW 7 15 4 8 - - 6.4
30/11:00am 11.9 11.1 11.6 98 0.2 WSW 7 15 4 8 - - 5.0
30/10:30am 11.8 10.9 11.5 98 0.2 WSW 7 15 4 8 - - 4.4
30/10:00am 11.8 10.9 11.5 98 0.2 WSW 7 17 4 9 - - 3.2
30/09:30am 11.4 10.6 11.1 98 0.2 WSW 6 9 3 5 - - 2.6
30/09:00am 11.3 10.2 10.8 97 0.3 WSW 7 13 4 7 - - 4.8
30/08:30am 11.1 10.0 10.6 97 0.3 W 7 15 4 8 - - 4.8
30/08:00am 11.3 10.3 10.4 94 0.5 WSW 6 17 3 9 - - 4.6
30/07:30am 11.4 10.3 10.5 94 0.5 WSW 7 17 4 9 - - 4.0
30/07:00am 11.2 10.0 10.3 94 0.5 WSW 7 15 4 8 - - 4.0
30/06:30am 11.4 10.1 9.8 90 0.8 SW 7 17 4 9 - - 3.8
30/06:00am 11.7 10.3 9.4 86 1.2 SW 7 19 4 10 - - 3.8
30/05:30am 11.8 9.9 9.2 84 1.3 S 9 13 5 7 - - 3.8
30/05:00am 11.8 10.1 9.7 87 1.1 SSW 9 26 5 14 - - 3.8
30/04:30am 11.8 10.4 9.5 86 1.2 SSW 7 15 4 8 - - 3.8
30/04:00am 11.9 10.1 9.5 85 1.2 SSW 9 19 5 10 - - 3.8
30/03:30am 11.9 9.7 9.5 85 1.2 S 11 19 6 10 - - 3.8
30/03:00am 12.0 10.3 9.7 86 1.2 S 9 20 5 11 - - 3.8
30/02:30am 12.1 9.5 9.5 84 1.3 S 13 26 7 14 - - 3.8
30/02:00am 12.2 9.6 9.4 83 1.4 S 13 26 7 14 - - 3.8
30/01:30am 12.2 10.1 9.6 84 1.3 SSW 11 20 6 11 - - 3.8
30/01:00am 12.2 9.7 9.6 84 1.3 S 13 24 7 13 - - 3.8
30/12:30am 12.0 9.6 10.1 88 1.0 S 13 28 7 15 - - 3.8
30/12:00am 11.6 9.9 10.0 90 0.8 SSW 9 17 5 9 - - 3.8
 
Date/Time
EDT
Temp
°C
App
Temp
°C
Dew
Point
Rel
Hum
%
Delta-T
°C
Wind Press
QNH
hPa
Press
MSL
hPa
Rain
since 9 am
mm
Dir
 
Spd
km/h
Gust
km/h
Spd
kts
Gust
kts
29/11:30pm 11.5 9.8 9.9 90 0.8 SSW 9 13 5 7 - - 3.8
29/11:00pm 12.4 9.8 9.4 82 1.5 S 13 26 7 14 - - 3.6
29/10:30pm 13.0 10.8 9.3 78 1.9 S 11 20 6 11 - - 3.6
29/10:00pm 13.1 11.3 9.5 79 1.9 S 9 17 5 9 - - 3.6
29/09:30pm 13.2 10.6 9.3 77 2.0 S 13 26 7 14 - - 3.6
29/09:00pm 13.2 11.0 9.5 78 1.9 SSE 11 26 6 14 - - 3.6
29/08:30pm 13.1 11.0 9.7 80 1.8 S 11 24 6 13 - - 3.6
29/08:00pm 13.4 11.1 10.4 82 1.6 SSE 13 32 7 17 - - 3.6
29/07:30pm 13.2 10.8 10.2 82 1.6 SSE 13 26 7 14 - - 3.6
29/07:00pm 12.9 11.3 11.5 91 0.8 S 11 26 6 14 - - 3.6
29/06:30pm 13.4 12.1 11.3 87 1.1 S 9 22 5 12 - - 3.2
29/06:00pm 15.3 13.8 10.7 74 2.5 S 9 24 5 13 - - 1.8
29/05:30pm 14.4 12.5 10.6 78 2.0 SSE 11 22 6 12 - - 1.8
29/05:00pm 13.9 11.4 11.1 83 1.5 SSE 15 30 8 16 - - 1.8
29/04:30pm 14.3 12.2 11.3 82 1.6 S 13 28 7 15 - - 1.8
29/04:00pm 15.2 13.6 11.4 78 2.1 SSE 11 26 6 14 - - 1.8
29/03:30pm 16.3 15.1 12.8 80 2.0 SSE 11 32 6 17 - - 1.8
29/03:00pm 14.2 13.0 12.8 91 0.8 SSE 11 24 6 13 - - 1.8
29/02:30pm 13.4 13.0 12.3 93 0.6 SW 6 13 3 7 - - 1.8
29/02:00pm 15.1 13.3 10.7 75 2.4 SSW 11 20 6 11 - - 1.2
29/01:30pm 15.7 14.6 11.9 78 2.1 SSW 9 20 5 11 - - 1.2
29/01:00pm 14.4 12.8 11.4 82 1.6 S 11 22 6 12 - - 1.2
29/12:30pm 15.7 14.1 11.7 77 2.2 S 11 26 6 14 - - 1.2
29/12:00pm 14.1 12.4 12.3 89 1.0 S 13 28 7 15 - - 1.2
29/11:30am 13.4 11.6 12.1 92 0.7 S 13 22 7 12 - - 1.2
29/11:00am 13.0 10.3 10.2 83 1.5 SSE 15 32 8 17 - - 0.2
29/10:30am 13.3 12.2 12.0 92 0.7 S 9 20 5 11 - - 0.2
29/10:00am 12.6 11.4 11.5 93 0.6 S 9 22 5 12 - - 0.2
29/09:30am 13.6 13.1 12.5 93 0.6 SSW 7 17 4 9 - - 0.0
29/09:00am 13.0 12.6 12.5 97 0.3 SW 6 13 3 7 - - 12.0
29/08:30am 11.4 10.9 10.9 97 0.3 WSW 4 9 2 5 - - 12.0
29/08:00am 11.4 10.0 10.9 97 0.3 S 9 17 5 9 - - 12.0
29/07:30am 10.8 9.1 9.9 94 0.5 SW 9 35 5 19 - - 9.6
29/07:00am 11.3 10.3 10.4 94 0.5 SSE 6 9 3 5 - - 5.0
29/06:30am 10.8 9.1 9.9 94 0.5 S 9 20 5 11 - - 5.0
29/06:00am 10.5 8.3 9.3 92 0.6 SSE 11 22 6 12 - - 4.8
29/05:30am 10.7 8.6 9.8 94 0.5 S 11 22 6 12 - - 4.6
29/05:00am 11.5 9.4 9.8 89 0.9 SSE 11 24 6 13 - - 2.6
29/04:30am 11.0 9.7 9.9 93 0.6 S 7 15 4 8 - - 2.6
29/04:00am 11.2 9.9 10.0 92 0.6 S 7 15 4 8 - - 2.6
29/03:30am 11.1 9.9 10.2 94 0.5 S 7 13 4 7 - - 2.4
29/03:00am 11.4 10.2 10.3 93 0.6 SSE 7 15 4 8 - - 2.4
29/02:30am 11.0 9.9 10.1 94 0.5 SSW 6 7 3 4 - - 1.8
29/02:00am 11.3 10.0 10.0 92 0.7 S 7 13 4 7 - - 1.0
29/01:30am 11.1 10.0 9.9 92 0.6 SSW 6 11 3 6 - - 0.8
29/01:00am 11.1 9.7 9.7 91 0.7 S 7 15 4 8 - - 0.8
29/12:30am 11.1 9.1 8.5 84 1.3 SSE 9 17 5 9 - - 0.8
29/12:00am 11.8 10.4 9.4 85 1.2 S 7 19 4 10 - - 0.4
 
Date/Time
EDT
Temp
°C
App
Temp
°C
Dew
Point
Rel
Hum
%
Delta-T
°C
Wind Press
QNH
hPa
Press
MSL
hPa
Rain
since 9 am
mm
Dir
 
Spd
km/h
Gust
km/h
Spd
kts
Gust
kts
28/11:30pm 12.3 10.6 9.7 84 1.3 S 9 17 5 9 - - 0.4
28/11:00pm 12.8 11.0 9.4 80 1.8 SSE 9 20 5 11 - - 0.2
28/10:30pm 13.0 11.6 9.4 79 1.9 SSE 7 15 4 8 - - 0.0
28/10:00pm 13.3 11.4 9.2 76 2.1 SSE 9 15 5 8 - - 0.0
28/09:30pm 13.3 11.8 9.2 76 2.1 SSE 7 15 4 8 - - 0.0
28/09:00pm 13.5 12.1 9.6 77 2.0 SSE 7 17 4 9 - - 0.0
28/08:30pm 13.8 11.7 9.6 76 2.2 SE 11 24 6 13 - - 0.0
28/08:00pm 14.3 12.6 9.9 75 2.3 SSE 9 19 5 10 - - 0.0
28/07:30pm 14.6 13.3 9.8 73 2.5 SSE 7 17 4 9 - - 0.0
28/07:00pm 15.3 13.9 9.7 69 3.0 SSE 7 19 4 10 - - 0.0
28/06:30pm 15.9 14.6 9.8 67 3.2 SE 7 17 4 9 - - 0.0
28/06:00pm 16.4 14.3 9.8 65 3.5 SE 11 28 6 15 - - 0.0
28/05:30pm 15.5 13.6 10.5 72 2.7 SE 11 24 6 13 - - 0.0
28/05:00pm 16.0 14.1 10.5 70 3.0 SE 11 24 6 13 - - 0.0

Other Formats:

Comma delimited format used in spreadsheet applications
http://www.bom.gov.au/fwo/IDV60801/IDV60801.94930.axf

JavaScript Object Notation format (JSON) in row-major order
http://www.bom.gov.au/fwo/IDV60801/IDV60801.94930.json